Time;durP1;ratioP1;P1;durP2;ratioP2;P2;SDS_P1;SDS_P2;PMS_P1;PMS_P2;Temp;Humidity;BMP_temperature;BMP_pressure;BME280_temperature;BME280_humidity;BME280_pressure;Samples;Min_cycle;Max_cycle;Signal;HPM_P1;HPM_P2
2022/06/10 00:02:18;;;;;;;11.13;9.30;;;;;;;17.70;86.06;96306.09;5067249;28;20264;-73
2022/06/10 00:04:45;;;;;;;12.90;8.57;;;;;;;17.93;85.19;96305.94;5048598;28;20247;-72
2022/06/10 00:07:12;;;;;;;13.07;9.30;;;;;;;18.04;84.27;96295.34;5066806;28;20270;-73
2022/06/10 00:09:39;;;;;;;10.83;8.27;;;;;;;18.31;83.36;96295.53;5066686;28;20576;-73
2022/06/10 00:12:10;;;;;;;10.80;7.83;;;;;;;18.38;82.79;96294.84;5066569;28;20182;-73
2022/06/10 00:14:37;;;;;;;10.20;8.27;;;;;;;18.40;82.49;96292.13;5066898;28;20225;-73
2022/06/10 00:17:04;;;;;;;10.17;7.57;;;;;;;18.30;82.58;96286.84;5048162;28;20568;-75
2022/06/10 00:19:32;;;;;;;11.87;8.10;;;;;;;18.31;82.71;96292.91;5067237;28;20218;-73
2022/06/10 00:22:00;;;;;;;12.23;8.80;;;;;;;18.38;82.21;96291.44;5066350;28;20194;-74
2022/06/10 00:24:27;;;;;;;11.50;8.63;;;;;;;18.31;82.40;96285.88;5067206;28;20571;-73
2022/06/10 00:26:54;;;;;;;11.57;7.73;;;;;;;18.26;82.55;96295.13;5066585;28;20220;-74
2022/06/10 00:29:21;;;;;;;11.20;8.30;;;;;;;18.16;82.93;96297.72;5066523;28;20258;-73
2022/06/10 00:31:48;;;;;;;10.83;8.73;;;;;;;18.16;83.20;96287.22;5066879;28;20190;-73
2022/06/10 00:34:15;;;;;;;9.27;7.90;;;;;;;18.24;83.32;96289.16;5066111;28;20221;-72
2022/06/10 00:36:42;;;;;;;10.63;7.90;;;;;;;18.27;82.81;96288.91;5067089;28;20565;-75
2022/06/10 00:39:09;;;;;;;11.30;8.03;;;;;;;18.32;82.42;96281.47;5066517;28;20570;-72
2022/06/10 00:41:40;;;;;;;11.17;7.77;;;;;;;18.20;82.74;96287.78;5066658;28;20188;-73
2022/06/10 00:44:36;;;;;;;10.60;8.40;;;;;;;18.21;82.77;96281.59;5066322;28;20218;-72
2022/06/10 00:47:26;;;;;;;13.53;8.70;;;;;;;18.21;83.10;96274.56;5068776;28;20208;-73
2022/06/10 00:50:16;;;;;;;13.83;9.20;;;;;;;18.16;82.24;96255.78;5070922;28;20194;-73
2022/06/10 00:52:48;;;;;;;12.50;8.87;;;;;;;18.23;82.59;96267.38;5052079;28;20197;-74
2022/06/10 00:55:16;;;;;;;13.27;8.97;;;;;;;18.27;82.38;96270.56;5070250;28;20205;-74
2022/06/10 00:57:46;;;;;;;11.00;8.23;;;;;;;18.19;82.45;96275.66;5052357;28;20259;-74
2022/06/10 01:00:16;;;;;;;12.53;9.10;;;;;;;18.26;82.16;96276.78;5070083;28;20191;-75
2022/06/10 01:02:44;;;;;;;10.47;8.63;;;;;;;18.26;82.40;96274.97;5052696;28;20223;-73
2022/06/10 01:05:19;;;;;;;11.17;9.03;;;;;;;18.39;81.62;96278.16;5069817;28;20575;-72
2022/06/10 01:07:57;;;;;;;10.70;8.63;;;;;;;18.36;81.95;96278.44;5069739;28;20192;-72
2022/06/10 01:10:25;;;;;;;11.03;9.03;;;;;;;18.33;82.14;96280.50;5069992;28;20670;-72
2022/06/10 01:13:28;;;;;;;11.57;8.77;;;;;;;18.29;81.63;96281.75;5069448;28;20217;-72
2022/06/10 01:16:18;;;;;;;11.87;8.83;;;;;;;18.26;81.51;96282.84;5052314;28;20676;-71
2022/06/10 01:19:12;;;;;;;12.57;9.00;;;;;;;18.20;80.41;96282.53;5051746;28;20579;-72
2022/06/10 01:21:48;;;;;;;10.73;8.87;;;;;;;18.17;81.06;96272.34;5069270;28;20188;-74
2022/06/10 01:24:49;;;;;;;9.70;8.70;;;;;;;18.07;81.16;96276.75;5070250;28;20277;-72
2022/06/10 01:27:48;;;;;;;11.03;8.80;;;;;;;18.01;81.94;96266.78;5069353;28;20232;-74
2022/06/10 01:30:15;;;;;;;20.80;8.80;;;;;;;18.04;82.17;96269.13;5069212;28;20294;-73
2022/06/10 01:32:51;;;;;;;12.30;8.30;;;;;;;18.07;82.27;96267.09;5070034;28;20181;-73
2022/06/10 01:35:28;;;;;;;11.97;8.13;;;;;;;18.09;81.56;96269.56;5069010;28;20557;-74
2022/06/10 01:38:16;;;;;;;15.33;8.73;;;;;;;18.05;82.01;96270.81;5069478;28;20691;-71
2022/06/10 01:40:53;;;;;;;10.40;8.23;;;;;;;18.10;82.43;96273.81;5069551;28;20190;-70
2022/06/10 01:43:37;;;;;;;13.07;8.83;;;;;;;17.93;82.57;96277.91;5068970;28;20700;-71
2022/06/10 01:46:20;;;;;;;14.50;8.83;;;;;;;17.50;82.81;96278.19;5069808;28;20668;-71
2022/06/10 01:48:55;;;;;;;9.87;8.70;;;;;;;17.28;84.06;96280.09;5068922;28;20330;-71
2022/06/10 01:51:30;;;;;;;13.40;9.37;;;;;;;17.20;84.83;96274.69;5069168;28;20185;-72
2022/06/10 01:54:08;;;;;;;14.43;11.00;;;;;;;16.98;86.06;96270.44;5069193;28;20274;-72
2022/06/10 01:56:46;;;;;;;13.67;10.47;;;;;;;16.90;86.58;96275.44;5068923;28;20189;-71
2022/06/10 01:59:20;;;;;;;17.53;10.70;;;;;;;16.86;87.29;96281.88;5069300;28;20876;-71
2022/06/10 02:02:14;;;;;;;17.50;10.63;;;;;;;16.79;87.78;96273.75;5068888;28;20193;-71
2022/06/10 02:04:51;;;;;;;18.77;11.40;;;;;;;16.86;87.22;96269.66;5050559;28;20223;-72
2022/06/10 02:07:26;;;;;;;16.80;11.20;;;;;;;16.85;87.86;96278.47;5069370;28;20239;-73
2022/06/10 02:10:03;;;;;;;15.27;10.43;;;;;;;17.11;86.50;96268.44;5068567;28;20246;-71
2022/06/10 02:12:34;;;;;;;15.07;10.77;;;;;;;17.36;85.84;96280.28;5068765;28;20306;-72
2022/06/10 02:15:15;;;;;;;18.07;10.93;;;;;;;17.49;85.04;96278.28;5068988;28;20217;-72
2022/06/10 02:17:49;;;;;;;15.23;9.70;;;;;;;17.64;84.39;96283.06;5068378;28;20181;-74
2022/06/10 02:20:22;;;;;;;14.40;11.47;;;;;;;17.76;83.91;96289.06;5069215;28;20721;-72
2022/06/10 02:22:52;;;;;;;19.70;11.47;;;;;;;17.75;84.18;96288.22;5068768;28;20189;-74
2022/06/10 02:25:27;;;;;;;19.90;11.73;;;;;;;17.76;84.66;96297.72;5068468;28;20703;-76
2022/06/10 02:28:03;;;;;;;18.13;11.97;;;;;;;17.76;84.64;96297.72;5068730;28;20195;-73
2022/06/10 02:30:56;;;;;;;17.90;11.20;;;;;;;17.44;85.57;96294.38;5068113;28;20197;-77
2022/06/10 02:33:23;;;;;;;23.83;13.30;;;;;;;17.32;86.77;96298.03;5055455;28;20209;-73
2022/06/10 02:36:06;;;;;;;23.30;15.07;;;;;;;17.14;87.47;96310.06;5050047;28;20197;-73
2022/06/10 02:38:51;;;;;;;27.33;14.93;;;;;;;17.14;87.91;96320.53;5050255;28;20194;-71
2022/06/10 02:41:43;;;;;;;20.13;14.63;;;;;;;17.08;88.25;96321.03;5068449;28;20192;-73
2022/06/10 02:44:46;;;;;;;24.10;14.63;;;;;;;17.03;88.74;96325.78;5049725;28;20758;-75
2022/06/10 02:47:35;;;;;;;30.73;16.07;;;;;;;16.68;90.98;96333.09;5068059;28;20192;-76
2022/06/10 02:50:02;;;;;;;30.73;18.33;;;;;;;16.58;91.80;96325.16;5068185;28;20193;-72
2022/06/10 02:52:34;;;;;;;37.77;19.93;;;;;;;16.75;91.60;96339.50;5067739;28;20619;-74
2022/06/10 02:55:03;;;;;;;30.73;19.00;;;;;;;16.68;91.84;96333.91;5068188;28;20306;-75
2022/06/10 03:03:39;;;;;;;32.03;18.70;;;;;;;16.75;92.85;96345.56;5068061;28;20280;-71
2022/06/10 03:06:14;;;;;;;31.47;19.33;;;;;;;16.83;93.31;96351.00;5046735;28;20198;-76
2022/06/10 03:08:49;;;;;;;36.60;21.57;;;;;;;16.78;93.24;96344.44;5067227;28;20242;-73
2022/06/10 03:11:38;;;;;;;36.93;21.53;;;;;;;16.73;94.03;96349.25;5067868;28;20190;-72
2022/06/10 03:14:20;;;;;;;38.53;20.63;;;;;;;16.69;94.51;96347.84;5067023;28;20221;-74
2022/06/10 03:16:47;;;;;;;34.33;19.47;;;;;;;16.73;94.88;96350.03;5067639;28;20189;-72
2022/06/10 03:19:17;;;;;;;32.63;20.53;;;;;;;16.82;94.92;96351.09;5067341;28;20191;-72
2022/06/10 03:22:15;;;;;;;33.17;18.73;;;;;;;17.01;93.81;96346.03;5067398;28;20616;-71
2022/06/10 03:25:04;;;;;;;30.87;18.87;;;;;;;17.08;92.95;96345.38;5040875;28;20197;-76
2022/06/10 03:27:45;;;;;;;32.93;18.03;;;;;;;16.91;93.51;96326.81;5067038;28;20235;-75
2022/06/10 03:30:17;;;;;;;31.63;19.77;;;;;;;16.88;93.71;96337.50;5067277;28;20722;-75
2022/06/10 03:33:12;;;;;;;29.63;18.47;;;;;;;16.90;93.91;96335.59;5049155;28;20204;-78
2022/06/10 03:35:46;;;;;;;27.30;18.03;;;;;;;16.87;93.97;96344.56;5048369;28;20234;-74
2022/06/10 03:38:13;;;;;;;33.73;18.93;;;;;;;16.82;93.88;96338.84;5067366;28;20259;-73
2022/06/10 03:40:42;;;;;;;30.27;19.90;;;;;;;16.85;93.69;96337.78;5066731;28;20620;-73
2022/06/10 03:43:13;;;;;;;28.20;19.20;;;;;;;16.92;93.50;96338.91;5066922;28;20665;-75
2022/06/10 03:45:45;;;;;;;32.63;19.40;;;;;;;17.01;92.79;96332.94;5066860;28;20627;-73
2022/06/10 03:48:18;;;;;;;37.03;21.87;;;;;;;16.93;92.83;96324.91;5066656;28;20692;-73
2022/06/10 03:50:47;;;;;;;32.47;20.03;;;;;;;17.00;92.67;96333.91;5049444;28;20200;-73
2022/06/10 03:53:16;;;;;;;37.90;23.50;;;;;;;16.93;92.74;96332.75;5066536;28;20217;-72
2022/06/10 03:55:43;;;;;;;31.73;20.73;;;;;;;16.83;93.35;96334.47;5067000;28;20665;-73
2022/06/10 03:58:11;;;;;;;32.07;19.07;;;;;;;16.86;93.20;96324.56;5032146;28;20687;-75
2022/06/10 04:00:38;;;;;;;33.83;21.73;;;;;;;17.17;92.93;96332.50;5032201;28;20255;-75
2022/06/10 04:03:06;;;;;;;27.00;19.60;;;;;;;17.36;91.42;96338.69;5032534;28;20203;-75
2022/06/10 04:05:33;;;;;;;29.43;19.67;;;;;;;17.35;91.09;96333.59;5048752;28;20214;-77
2022/06/10 04:08:19;;;;;;;28.13;17.93;;;;;;;17.48;91.01;96352.53;5067173;28;20209;-72
2022/06/10 04:10:46;;;;;;;28.63;18.50;;;;;;;17.58;90.18;96354.28;5066564;28;20588;-78
2022/06/10 04:13:17;;;;;;;23.93;17.23;;;;;;;17.69;89.99;96366.47;5066653;28;20668;-73
2022/06/10 04:15:44;;;;;;;22.93;16.47;;;;;;;17.80;89.26;96367.22;5066763;28;20220;-74
2022/06/10 04:18:12;;;;;;;25.93;17.67;;;;;;;17.88;89.05;96367.41;5066802;28;20277;-73
2022/06/10 04:20:40;;;;;;;28.33;19.10;;;;;;;17.85;89.27;96370.28;5067457;28;20185;-73
2022/06/10 04:23:08;;;;;;;31.13;18.90;;;;;;;17.85;89.16;96383.38;5070654;28;20188;-76
2022/06/10 04:25:37;;;;;;;32.83;19.03;;;;;;;17.92;89.10;96375.00;5071039;28;20580;-75
2022/06/10 04:28:05;;;;;;;35.57;20.43;;;;;;;17.87;89.62;96376.22;5070572;28;20192;-74
2022/06/10 04:30:39;;;;;;;35.60;21.17;;;;;;;18.05;88.92;96381.69;5070860;28;20188;-76
2022/06/10 04:33:07;;;;;;;40.27;19.27;;;;;;;18.02;89.24;96387.19;5070998;28;20185;-74
2022/06/10 04:35:35;;;;;;;38.00;19.33;;;;;;;17.99;89.28;96389.25;5069788;28;20366;-76
2022/06/10 04:38:04;;;;;;;35.70;18.27;;;;;;;18.03;89.03;96391.47;5053577;28;20744;-77
2022/06/10 04:40:34;;;;;;;27.40;16.47;;;;;;;18.05;88.36;96391.34;5070394;28;20214;-75
2022/06/10 04:43:01;;;;;;;42.73;19.20;;;;;;;18.06;88.40;96391.19;5036976;28;20194;-73
2022/06/10 04:45:32;;;;;;;28.57;16.77;;;;;;;18.11;88.02;96399.50;5071013;28;20196;-73
2022/06/10 04:48:00;;;;;;;28.17;16.37;;;;;;;18.05;87.50;96386.94;5070968;28;20190;-74
2022/06/10 04:50:28;;;;;;;24.90;15.70;;;;;;;18.03;87.30;96390.66;5056676;28;20697;-76
2022/06/10 04:52:56;;;;;;;28.53;15.73;;;;;;;17.95;87.84;96391.28;5062074;28;20195;-75
2022/06/10 04:55:25;;;;;;;24.37;15.90;;;;;;;18.00;88.13;96393.50;5081096;28;20312;-74
2022/06/10 04:57:55;;;;;;;27.80;15.40;;;;;;;18.12;87.55;96400.31;5062180;28;20181;-75
2022/06/10 05:00:30;;;;;;;30.10;16.13;;;;;;;18.19;86.70;96404.91;5081029;28;20204;-73
2022/06/10 05:02:58;;;;;;;26.73;17.50;;;;;;;18.03;87.03;96398.50;5055382;28;20668;-74
2022/06/10 05:05:26;;;;;;;26.93;18.57;;;;;;;17.97;87.81;96402.44;5075658;28;20572;-77
2022/06/10 05:07:53;;;;;;;24.17;17.53;;;;;;;17.86;89.00;96411.25;5073685;28;20192;-75
2022/06/10 05:10:20;;;;;;;27.10;18.80;;;;;;;17.87;88.58;96401.59;5071255;28;20653;-73
2022/06/10 05:12:47;;;;;;;31.87;18.83;;;;;;;17.89;89.37;96402.28;5072181;28;20181;-76
2022/06/10 05:15:15;;;;;;;28.37;17.73;;;;;;;17.77;89.08;96401.53;5071557;28;20667;-74
2022/06/10 05:17:42;;;;;;;27.07;18.57;;;;;;;17.78;90.30;96407.63;5070920;28;20191;-73
2022/06/10 05:20:15;;;;;;;29.70;19.83;;;;;;;17.78;89.96;96397.94;5069667;28;20240;-76
2022/06/10 05:22:43;;;;;;;32.13;19.07;;;;;;;17.93;89.89;96411.53;5070138;28;20689;-77
2022/06/10 05:25:10;;;;;;;27.33;17.80;;;;;;;18.22;88.67;96411.66;5069913;28;20653;-75
2022/06/10 05:27:37;;;;;;;28.67;18.60;;;;;;;18.43;87.41;96417.69;5069419;28;20192;-73
2022/06/10 05:30:06;;;;;;;28.50;19.40;;;;;;;18.49;86.98;96420.63;5070410;28;20681;-76
2022/06/10 05:32:33;;;;;;;26.33;18.13;;;;;;;18.45;87.05;96413.16;5017715;28;20253;-75
2022/06/10 05:35:00;;;;;;;26.43;18.70;;;;;;;18.30;86.87;96404.00;5069884;28;20592;-72
2022/06/10 05:37:28;;;;;;;29.10;19.00;;;;;;;18.20;87.53;96418.84;5051613;28;20209;-76
2022/06/10 05:39:56;;;;;;;29.57;20.40;;;;;;;18.19;87.78;96419.81;5069412;28;20181;-73
2022/06/10 05:42:23;;;;;;;31.90;20.17;;;;;;;18.21;88.33;96416.09;5051619;28;20242;-75
2022/06/10 05:44:51;;;;;;;29.83;20.63;;;;;;;18.38;88.09;96412.84;5050924;28;20271;-73
2022/06/10 05:47:25;;;;;;;30.90;20.93;;;;;;;18.41;87.46;96406.50;5051634;28;20190;-73
2022/06/10 05:49:55;;;;;;;29.17;20.07;;;;;;;18.60;88.12;96411.84;5068925;28;20570;-73
2022/06/10 05:52:25;;;;;;;30.63;19.97;;;;;;;18.90;85.80;96409.13;5051445;28;20195;-75
2022/06/10 05:54:55;;;;;;;57.73;22.87;;;;;;;19.18;84.27;96412.75;5069385;28;20246;-73
2022/06/10 05:57:22;;;;;;;34.77;20.10;;;;;;;19.43;82.95;96406.97;5051129;28;20597;-73
2022/06/10 05:59:52;;;;;;;26.17;17.97;;;;;;;19.62;82.03;96404.31;5069164;28;20202;-74
2022/06/10 06:02:23;;;;;;;29.17;18.13;;;;;;;19.89;81.13;96409.66;5068377;28;20197;-73
2022/06/10 06:04:51;;;;;;;24.07;17.57;;;;;;;20.11;79.71;96411.13;5034673;28;20196;-73
2022/06/10 06:07:24;;;;;;;23.47;17.87;;;;;;;20.05;79.39;96416.94;5050346;28;20189;-73
2022/06/10 06:09:52;;;;;;;35.90;18.53;;;;;;;20.42;78.86;96422.25;5033949;28;20205;-74
2022/06/10 06:12:20;;;;;;;28.10;18.40;;;;;;;20.36;78.64;96418.38;5069001;28;20659;-74
2022/06/10 06:14:51;;;;;;;30.50;18.97;;;;;;;20.71;77.39;96417.66;5050660;28;20316;-76
2022/06/10 06:17:19;;;;;;;23.83;17.77;;;;;;;20.71;76.61;96428.19;5019198;28;20203;-74
2022/06/10 06:19:47;;;;;;;25.00;17.57;;;;;;;20.42;77.27;96427.50;5049030;28;20193;-72
2022/06/10 06:22:15;;;;;;;25.70;18.70;;;;;;;20.42;76.90;96409.91;5068252;28;20189;-77
2022/06/10 06:24:42;;;;;;;24.73;18.77;;;;;;;20.92;76.28;96405.03;5049754;28;20273;-75
2022/06/10 06:27:14;;;;;;;25.17;16.90;;;;;;;21.41;74.45;96409.81;5068127;28;20307;-76
2022/06/10 06:29:41;;;;;;;25.23;17.13;;;;;;;21.72;73.66;96423.44;5068434;28;20627;-77
2022/06/10 06:32:09;;;;;;;23.23;16.10;;;;;;;21.80;72.48;96434.03;5068590;28;20194;-76
2022/06/10 06:34:38;;;;;;;27.33;18.07;;;;;;;21.80;71.45;96434.03;5068354;28;20228;-74
2022/06/10 06:37:09;;;;;;;22.37;17.60;;;;;;;21.04;73.74;96441.56;5067669;28;20191;-72
2022/06/10 06:39:37;;;;;;;24.03;17.53;;;;;;;20.99;75.08;96433.28;5049815;28;20198;-73
2022/06/10 06:42:04;;;;;;;26.53;18.17;;;;;;;20.81;75.81;96426.31;5067528;28;20191;-75
2022/06/10 06:44:41;;;;;;;17.30;15.07;;;;;;;20.56;75.27;96438.38;5033106;28;20201;-77
2022/06/10 06:47:29;;;;;;;24.97;19.07;;;;;;;20.34;76.97;96430.84;5067881;28;20657;-76
2022/06/10 06:49:56;;;;;;;19.10;14.20;;;;;;;20.61;76.40;96432.69;5049513;28;20182;-74
2022/06/10 06:52:23;;;;;;;15.70;13.47;;;;;;;20.77;75.64;96436.28;5067736;28;20594;-74
2022/06/10 06:54:50;;;;;;;19.70;14.17;;;;;;;20.94;74.59;96440.78;5048945;28;20656;-75
2022/06/10 06:57:20;;;;;;;18.40;14.57;;;;;;;20.96;75.05;96433.56;5050196;28;20206;-72
2022/06/10 06:59:47;;;;;;;19.83;13.50;;;;;;;20.89;74.52;96431.69;5066885;28;20184;-77
2022/06/10 07:02:14;;;;;;;22.60;14.33;;;;;;;20.66;75.14;96398.84;5067201;28;20722;-73
2022/06/10 07:04:41;;;;;;;15.47;13.87;;;;;;;20.28;76.90;96431.41;5049264;28;20275;-76
2022/06/10 07:07:08;;;;;;;16.80;13.40;;;;;;;20.33;77.65;96439.72;5066770;28;20197;-75
2022/06/10 07:09:36;;;;;;;18.90;14.13;;;;;;;20.54;76.47;96444.75;5050101;28;20578;-73
2022/06/10 07:12:04;;;;;;;17.60;13.70;;;;;;;20.42;77.09;96448.53;5032150;28;20197;-74
2022/06/10 07:14:31;;;;;;;16.77;14.47;;;;;;;20.54;77.00;96448.22;5067188;28;20552;-73
2022/06/10 07:16:58;;;;;;;18.00;15.27;;;;;;;20.34;77.58;96449.25;5048380;28;20610;-74
2022/06/10 07:19:25;;;;;;;22.37;16.53;;;;;;;20.43;77.71;96451.03;5066520;28;20196;-74
2022/06/10 07:21:55;;;;;;;21.83;16.63;;;;;;;20.37;78.44;96450.75;5049119;28;20305;-76
2022/06/10 07:24:22;;;;;;;21.97;17.30;;;;;;;20.43;77.98;96445.75;5066201;28;20192;-75
2022/06/10 07:26:50;;;;;;;25.27;17.90;;;;;;;20.49;77.96;96453.06;5066828;28;20739;-75
2022/06/10 07:29:18;;;;;;;37.93;21.23;;;;;;;20.52;78.22;96444.06;5066048;28;20185;-76
2022/06/10 07:31:45;;;;;;;23.53;18.37;;;;;;;20.46;78.32;96447.28;5066940;28;20199;-74
2022/06/10 07:34:16;;;;;;;25.60;18.57;;;;;;;20.58;78.06;96454.84;5048548;28;20205;-75
2022/06/10 07:36:44;;;;;;;27.83;20.97;;;;;;;20.64;78.40;96448.16;5032385;28;20259;-73
2022/06/10 07:39:11;;;;;;;39.43;23.30;;;;;;;20.94;77.33;96453.94;5048536;28;20676;-73
2022/06/10 07:41:57;;;;;;;32.30;22.47;;;;;;;21.01;76.48;96449.75;5066243;28;20189;-73
2022/06/10 07:44:25;;;;;;;29.73;22.17;;;;;;;21.04;76.46;96441.56;5049122;28;20188;-74
2022/06/10 07:46:55;;;;;;;27.57;21.67;;;;;;;21.32;75.62;96444.16;5031059;28;20197;-77
2022/06/10 07:49:28;;;;;;;37.57;30.90;;;;;;;21.10;76.40;96449.88;5049491;28;20220;-73
2022/06/10 07:51:57;;;;;;;29.23;20.93;;;;;;;21.37;75.27;96447.19;5048330;28;20192;-74
2022/06/10 07:54:24;;;;;;;29.17;22.53;;;;;;;21.76;73.38;96437.97;5048043;28;20197;-77
2022/06/10 07:56:52;;;;;;;29.13;23.43;;;;;;;21.71;73.64;96437.59;5066461;28;20213;-76
2022/06/10 07:59:19;;;;;;;24.77;21.87;;;;;;;21.45;73.89;96439.34;5065540;28;20305;-76
2022/06/10 08:01:46;;;;;;;30.07;22.97;;;;;;;21.69;73.81;96434.28;5048403;28;20190;-77
2022/06/10 08:04:14;;;;;;;25.23;21.40;;;;;;;21.86;73.46;96450.06;5047761;28;20192;-74
2022/06/10 08:06:46;;;;;;;35.13;26.13;;;;;;;22.18;72.08;96441.56;5066204;28;20190;-74
2022/06/10 08:09:14;;;;;;;34.47;25.03;;;;;;;22.43;71.61;96453.91;5066852;28;20201;-76
2022/06/10 08:11:42;;;;;;;34.70;24.27;;;;;;;22.28;71.47;96447.56;5065692;28;20195;-76
2022/06/10 08:14:10;;;;;;;27.23;22.93;;;;;;;21.94;72.47;96462.50;5048502;28;20598;-75
2022/06/10 08:16:37;;;;;;;32.20;22.57;;;;;;;21.84;73.54;96459.94;5047619;28;20251;-76
2022/06/10 08:19:04;;;;;;;34.10;24.27;;;;;;;22.02;72.53;96467.84;5031747;28;20268;-76
2022/06/10 08:24:20;;;;;;;31.10;23.23;;;;;;;22.21;71.92;96475.56;5065861;28;20211;-75
2022/06/10 08:26:48;;;;;;;32.37;25.87;;;;;;;22.19;72.19;96480.16;5066180;28;20232;-74
2022/06/10 08:29:18;;;;;;;26.60;22.47;;;;;;;22.04;72.47;96467.69;5030721;28;20194;-76
2022/06/10 08:31:45;;;;;;;30.00;24.27;;;;;;;22.09;72.87;96470.69;5066591;28;20285;-77
2022/06/10 08:34:13;;;;;;;25.90;21.17;;;;;;;22.07;72.76;96476.09;5065201;28;20209;-74
2022/06/10 08:36:41;;;;;;;29.20;22.23;;;;;;;22.16;72.61;96463.81;5066074;28;20703;-74
2022/06/10 08:39:10;;;;;;;24.90;20.50;;;;;;;22.20;72.29;96484.44;5031715;28;20190;-77
2022/06/10 08:42:01;;;;;;;28.40;22.93;;;;;;;21.94;73.08;96482.78;5065975;28;20618;-77
2022/06/10 08:44:45;;;;;;;28.23;21.30;;;;;;;21.67;74.16;96491.59;5066697;28;20726;-75
2022/06/10 08:47:51;;;;;;;30.77;22.97;;;;;;;21.78;74.07;96486.09;5065243;28;20306;-74
2022/06/10 08:50:33;;;;;;;34.93;25.97;;;;;;;21.96;74.49;96492.19;5055637;28;20193;-75
2022/06/10 08:53:25;;;;;;;39.90;26.57;;;;;;;22.06;73.45;96492.91;5065780;28;20269;-73
2022/06/10 08:56:27;;;;;;;34.70;24.13;;;;;;;22.05;73.77;96485.97;5064771;28;20220;-76
2022/06/10 08:59:01;;;;;;;31.23;22.93;;;;;;;21.89;74.60;96480.59;5065713;28;20681;-76
2022/06/10 09:01:37;;;;;;;33.87;22.23;;;;;;;21.81;75.12;96499.81;5065470;28;20271;-74
2022/06/10 09:04:28;;;;;;;28.93;22.00;;;;;;;21.89;74.93;96491.13;5030435;28;20691;-74
2022/06/10 09:07:00;;;;;;;28.77;22.00;;;;;;;21.90;75.02;96507.78;5048691;28;20196;-73
2022/06/10 09:09:29;;;;;;;29.17;22.03;;;;;;;22.11;74.65;96498.56;5050827;28;20201;-77
2022/06/10 09:12:07;;;;;;;27.80;21.63;;;;;;;22.19;73.02;96501.28;5069326;28;20214;-76
2022/06/10 09:14:35;;;;;;;32.13;22.60;;;;;;;22.67;72.35;96502.56;5051220;28;20243;-77
2022/06/10 09:17:04;;;;;;;31.57;22.80;;;;;;;22.63;71.94;96512.59;5050084;28;20755;-78
2022/06/10 09:19:51;;;;;;;30.43;24.23;;;;;;;22.81;69.80;96507.25;5051744;28;20197;-75
2022/06/10 09:22:37;;;;;;;31.37;23.70;;;;;;;22.65;71.83;96508.00;5068202;28;20325;-76
2022/06/10 09:25:07;;;;;;;30.53;23.77;;;;;;;22.69;70.86;96511.16;5068266;28;20203;-75
2022/06/10 09:27:36;;;;;;;31.30;24.27;;;;;;;22.68;71.69;96515.63;5068765;28;20206;-75
2022/06/10 09:30:07;;;;;;;40.60;27.80;;;;;;;22.58;71.86;96515.75;5068110;28;20599;-77
2022/06/10 09:32:41;;;;;;;30.80;24.60;;;;;;;22.48;72.68;96514.97;5034638;28;20341;-77
2022/06/10 09:35:45;;;;;;;36.97;25.60;;;;;;;22.55;72.61;96507.25;5050334;28;20226;-75
2022/06/10 09:38:33;;;;;;;46.90;29.87;;;;;;;22.83;71.72;96498.19;5018027;28;20716;-74
2022/06/10 09:41:10;;;;;;;34.03;24.63;;;;;;;23.05;71.51;96499.44;5034940;28;20208;-76
2022/06/10 09:43:43;;;;;;;29.50;24.90;;;;;;;22.46;71.69;96506.38;5067832;28;20196;-75
2022/06/10 09:46:44;;;;;;;34.27;27.60;;;;;;;22.78;71.26;96482.00;5051055;28;20615;-74
2022/06/10 09:49:41;;;;;;;38.80;30.30;;;;;;;22.91;71.71;96490.31;5068778;28;20300;-76
2022/06/10 09:52:17;;;;;;;33.60;26.83;;;;;;;22.90;70.77;96491.28;5004691;28;20202;-75
2022/06/10 09:55:14;;;;;;;34.47;28.13;;;;;;;22.98;71.62;96479.94;5069246;28;20286;-74
2022/06/10 09:57:51;;;;;;;36.07;26.30;;;;;;;;;;5050295;28;20200;-77
2022/06/10 10:00:24;;;;;;;38.20;27.97;;;;;;;23.02;71.71;96489.19;5067729;28;20215;-76
2022/06/10 10:03:19;;;;;;;38.67;27.30;;;;;;;23.15;70.25;96497.47;5018034;28;20199;-76
2022/06/10 10:05:56;;;;;;;39.03;29.23;;;;;;;23.32;69.89;96492.13;5067857;28;20192;-74
2022/06/10 10:08:50;;;;;;;43.87;30.53;;;;;;;23.38;69.56;96488.00;5033623;28;20203;-75
2022/06/10 10:11:28;;;;;;;33.67;27.40;;;;;;;23.19;70.43;96488.25;5018004;28;20690;-76
2022/06/10 10:14:18;;;;;;;32.87;27.97;;;;;;;23.02;71.16;96492.66;5067477;28;20184;-76
2022/06/10 10:17:12;;;;;;;34.97;29.00;;;;;;;23.05;71.12;96486.22;5050327;28;20229;-75
2022/06/10 10:19:54;;;;;;;32.97;28.20;;;;;;;23.01;71.69;96480.44;5047901;28;20282;-74
2022/06/10 10:22:33;;;;;;;35.80;28.30;;;;;;;23.53;69.64;96486.38;5032656;28;20199;-74
2022/06/10 10:25:00;;;;;;;34.80;27.47;;;;;;;23.47;69.94;96487.03;5033607;28;20202;-75
2022/06/10 10:27:32;;;;;;;31.50;27.10;;;;;;;23.43;68.85;96475.13;5049666;28;20220;-73
2022/06/10 10:30:21;;;;;;;35.87;30.47;;;;;;;23.54;67.98;96482.72;5050181;28;20272;-74
2022/06/10 10:33:12;;;;;;;33.93;27.97;;;;;;;23.50;66.77;96484.06;5017025;28;20200;-74
2022/06/10 10:35:54;;;;;;;38.57;30.20;;;;;;;23.77;67.41;96478.47;5067418;28;20216;-74
2022/06/10 10:38:51;;;;;;;36.30;29.43;;;;;;;23.95;65.68;96479.13;5067690;28;20202;-76
2022/06/10 10:41:21;;;;;;;33.10;27.97;;;;;;;23.66;66.03;96484.06;5067781;28;20184;-75
2022/06/10 10:43:51;;;;;;;33.30;27.37;;;;;;;23.71;66.04;96476.47;5067042;28;20189;-74
2022/06/10 10:46:33;;;;;;;40.40;30.13;;;;;;;24.07;65.56;96469.06;5068020;28;20200;-74
2022/06/10 10:49:27;;;;;;;34.40;28.53;;;;;;;23.89;66.39;96453.31;5048687;28;20204;-73
2022/06/10 10:51:55;;;;;;;34.17;28.27;;;;;;;23.77;65.77;96444.06;5049161;28;20214;-74
2022/06/10 10:54:27;;;;;;;32.57;27.70;;;;;;;23.82;65.24;96448.88;5067653;28;20192;-75
2022/06/10 10:56:55;;;;;;;31.23;26.70;;;;;;;24.07;65.51;96439.97;5048036;28;20242;-76
2022/06/10 10:59:32;;;;;;;35.60;29.87;;;;;;;24.37;63.88;96427.81;5067570;28;20193;-75
2022/06/10 11:01:59;;;;;;;37.33;30.47;;;;;;;24.62;64.25;96442.63;5066596;28;20199;-75
2022/06/10 11:04:36;;;;;;;33.07;28.67;;;;;;;24.54;63.38;96429.41;5067109;28;20224;-76
2022/06/10 11:07:18;;;;;;;33.90;29.00;;;;;;;24.53;63.58;96435.69;5049438;28;20266;-77
2022/06/10 11:10:08;;;;;;;35.37;28.70;;;;;;;24.80;61.68;96432.66;5048210;28;20611;-72
2022/06/10 11:12:37;;;;;;;34.17;27.87;;;;;;;25.05;61.40;96439.50;5033369;28;20669;-77
2022/06/10 11:15:27;;;;;;;35.90;28.37;;;;;;;24.50;63.51;96439.53;5048695;28;20220;-75
2022/06/10 11:17:57;;;;;;;35.63;31.60;;;;;;;24.63;63.91;96423.06;5048324;28;20214;-75
2022/06/10 11:20:30;;;;;;;37.33;31.77;;;;;;;24.77;63.32;96422.41;5049310;28;20203;-75
2022/06/10 11:23:22;;;;;;;33.53;29.77;;;;;;;24.22;63.90;96425.88;5048166;28;20246;-73
2022/06/10 11:26:14;;;;;;;34.50;30.80;;;;;;;24.12;63.49;96413.81;5031786;28;20235;-75
2022/06/10 11:28:43;;;;;;;31.20;27.90;;;;;;;24.09;62.34;96407.03;5066966;28;20186;-75
2022/06/10 11:31:31;;;;;;;35.63;29.53;;;;;;;24.88;61.03;96422.00;5047908;28;20201;-74
2022/06/10 11:34:00;;;;;;;27.27;23.80;;;;;;;24.58;60.11;96428.09;5049266;28;20263;-76
2022/06/10 11:36:44;;;;;;;33.47;29.57;;;;;;;24.50;60.72;96409.56;5031803;28;20222;-76
2022/06/10 11:39:45;;;;;;;34.50;29.90;;;;;;;24.91;60.09;96400.47;5066554;28;20243;-76
2022/06/10 11:42:21;;;;;;;36.03;32.17;;;;;;;25.26;59.77;96399.94;5034353;28;20197;-74
2022/06/10 11:45:06;;;;;;;35.63;30.97;;;;;;;25.19;60.13;96398.97;5047977;28;20657;-76
2022/06/10 11:48:05;;;;;;;36.23;32.37;;;;;;;25.36;59.54;96399.69;5066559;28;20790;-75
2022/06/10 11:51:11;;;;;;;37.67;33.67;;;;;;;25.14;59.84;96396.06;5066758;28;20224;-75
2022/06/10 11:53:47;;;;;;;37.77;33.80;;;;;;;25.28;60.06;96400.59;5047590;28;20203;-74
2022/06/10 11:59:45;;;;;;;33.93;30.37;;;;;;;25.37;57.60;96414.63;5066568;28;20200;-75
2022/06/10 12:02:24;;;;;;;35.83;32.00;;;;;;;25.58;57.65;96405.03;5047786;28;20346;-74
2022/06/10 12:05:11;;;;;;;40.10;32.40;;;;;;;25.72;57.68;96398.94;5048572;28;20212;-74
2022/06/10 12:07:44;;;;;;;35.07;31.27;;;;;;;26.01;57.05;96398.16;5066469;28;20188;-74